Garden Prairie, Illinois
Current Conditions -  °F | °C
As of 6:54 PM on Friday 28 Nov 2014 (Local Time) from KRFD Reporting Station
Overcast Overcast  
Wind Chill: 26°   Ceiling: 12000
Heat Index: 33°   Visibility: 9mi
Dew Point: 29°   Wind: 8mph
Humidity: 85%   Direction: 170°S
Pressure: 29.93"   Gusts: NA
Location:  42.25°N, 88.72°W
Report Text: KRFD 290054Z 17007KT 9SM OVC120 01/M02 A2993 RMK AO2 SLP146 T00061017
Loading
Personal Weather Stations






























Interactive Weather Map New forecast layout! Learn more

10-Day Weather Forecast

Advertisements
Track Severe Weather on mobile